sensor_id;sensor_type;location;lat;lon;timestamp;temperature;humidity
16867;DHT22;8550;52.596;13.320;2023-07-13T00:01:35;17.40;99.90
16867;DHT22;8550;52.596;13.320;2023-07-13T00:06:39;17.40;99.90
16867;DHT22;8550;52.596;13.320;2023-07-13T00:11:50;17.30;99.90
16867;DHT22;8550;52.596;13.320;2023-07-13T00:16:53;17.20;99.90
16867;DHT22;8550;52.596;13.320;2023-07-13T00:21:55;17.10;99.90
16867;DHT22;8550;52.596;13.320;2023-07-13T00:26:58;17.20;99.90
16867;DHT22;8550;52.596;13.320;2023-07-13T00:32:00;17.10;99.90
16867;DHT22;8550;52.596;13.320;2023-07-13T00:37:02;17.10;99.90
16867;DHT22;8550;52.596;13.320;2023-07-13T00:42:08;17.10;99.90
16867;DHT22;8550;52.596;13.320;2023-07-13T00:47:11;17.10;99.90
16867;DHT22;8550;52.596;13.320;2023-07-13T00:52:13;16.90;99.90
16867;DHT22;8550;52.596;13.320;2023-07-13T00:57:19;16.90;99.90
16867;DHT22;8550;52.596;13.320;2023-07-13T01:02:22;16.70;99.90
16867;DHT22;8550;52.596;13.320;2023-07-13T01:07:25;16.60;99.90
16867;DHT22;8550;52.596;13.320;2023-07-13T01:12:28;16.40;99.90
16867;DHT22;8550;52.596;13.320;2023-07-13T01:17:33;16.40;99.90
16867;DHT22;8550;52.596;13.320;2023-07-13T01:22:37;16.50;99.90
16867;DHT22;8550;52.596;13.320;2023-07-13T01:27:39;16.30;99.90
16867;DHT22;8550;52.596;13.320;2023-07-13T01:32:41;16.30;99.90
16867;DHT22;8550;52.596;13.320;2023-07-13T01:37:45;16.20;99.90
16867;DHT22;8550;52.596;13.320;2023-07-13T01:42:47;16.20;99.90
16867;DHT22;8550;52.596;13.320;2023-07-13T01:47:49;16.00;99.90
16867;DHT22;8550;52.596;13.320;2023-07-13T01:52:52;16.20;99.90
16867;DHT22;8550;52.596;13.320;2023-07-13T01:57:54;16.10;99.90
16867;DHT22;8550;52.596;13.320;2023-07-13T02:02:56;16.20;99.90
16867;DHT22;8550;52.596;13.320;2023-07-13T02:08:00;16.10;99.90
16867;DHT22;8550;52.596;13.320;2023-07-13T02:13:03;16.10;99.90
16867;DHT22;8550;52.596;13.320;2023-07-13T02:18:05;16.00;99.90
16867;DHT22;8550;52.596;13.320;2023-07-13T02:23:09;15.90;99.90
16867;DHT22;8550;52.596;13.320;2023-07-13T02:28:11;15.80;99.90
16867;DHT22;8550;52.596;13.320;2023-07-13T02:33:12;15.80;99.90
16867;DHT22;8550;52.596;13.320;2023-07-13T02:38:16;15.70;99.90
16867;DHT22;8550;52.596;13.320;2023-07-13T02:43:18;15.70;99.90
16867;DHT22;8550;52.596;13.320;2023-07-13T02:48:19;15.50;99.90
16867;DHT22;8550;52.596;13.320;2023-07-13T02:53:23;15.50;99.90
16867;DHT22;8550;52.596;13.320;2023-07-13T02:58:25;15.50;99.90
16867;DHT22;8550;52.596;13.320;2023-07-13T03:03:27;15.50;99.90
16867;DHT22;8550;52.596;13.320;2023-07-13T03:08:30;15.60;99.90
16867;DHT22;8550;52.596;13.320;2023-07-13T03:13:33;15.60;99.90
16867;DHT22;8550;52.596;13.320;2023-07-13T03:18:35;15.60;99.90
16867;DHT22;8550;52.596;13.320;2023-07-13T03:23:39;15.40;99.90
16867;DHT22;8550;52.596;13.320;2023-07-13T03:28:41;15.40;99.90
16867;DHT22;8550;52.596;13.320;2023-07-13T03:33:43;15.40;99.90
16867;DHT22;8550;52.596;13.320;2023-07-13T03:38:48;15.60;99.90
16867;DHT22;8550;52.596;13.320;2023-07-13T03:43:51;15.70;99.90
16867;DHT22;8550;52.596;13.320;2023-07-13T03:48:53;15.70;99.90
16867;DHT22;8550;52.596;13.320;2023-07-13T03:53:58;15.80;99.90
16867;DHT22;8550;52.596;13.320;2023-07-13T03:58:59;15.90;99.90
16867;DHT22;8550;52.596;13.320;2023-07-13T04:04:03;15.90;99.90
16867;DHT22;8550;52.596;13.320;2023-07-13T04:09:06;16.10;99.90
16867;DHT22;8550;52.596;13.320;2023-07-13T04:14:10;16.20;99.90
16867;DHT22;8550;52.596;13.320;2023-07-13T04:19:13;16.40;99.90
16867;DHT22;8550;52.596;13.320;2023-07-13T04:24:16;16.60;99.90
16867;DHT22;8550;52.596;13.320;2023-07-13T04:29:18;16.70;99.90
16867;DHT22;8550;52.596;13.320;2023-07-13T04:34:20;16.80;99.90
16867;DHT22;8550;52.596;13.320;2023-07-13T04:39:23;17.00;99.90
16867;DHT22;8550;52.596;13.320;2023-07-13T04:44:25;17.00;99.90
16867;DHT22;8550;52.596;13.320;2023-07-13T04:49:27;17.10;99.90
16867;DHT22;8550;52.596;13.320;2023-07-13T04:54:30;17.30;99.90
16867;DHT22;8550;52.596;13.320;2023-07-13T04:59:32;17.40;99.90
16867;DHT22;8550;52.596;13.320;2023-07-13T05:04:34;17.50;99.90
16867;DHT22;8550;52.596;13.320;2023-07-13T05:09:38;17.60;99.90
16867;DHT22;8550;52.596;13.320;2023-07-13T05:14:40;17.90;99.90
16867;DHT22;8550;52.596;13.320;2023-07-13T05:19:42;18.10;99.90
16867;DHT22;8550;52.596;13.320;2023-07-13T05:24:46;18.20;99.90
16867;DHT22;8550;52.596;13.320;2023-07-13T05:29:48;18.40;99.90
16867;DHT22;8550;52.596;13.320;2023-07-13T05:34:50;18.60;99.90
16867;DHT22;8550;52.596;13.320;2023-07-13T05:39:53;18.80;99.90
16867;DHT22;8550;52.596;13.320;2023-07-13T05:44:55;19.00;99.90
16867;DHT22;8550;52.596;13.320;2023-07-13T05:49:57;19.30;99.90
16867;DHT22;8550;52.596;13.320;2023-07-13T05:55:00;19.50;99.90
16867;DHT22;8550;52.596;13.320;2023-07-13T06:00:04;19.60;99.90
16867;DHT22;8550;52.596;13.320;2023-07-13T06:05:07;19.70;99.90
16867;DHT22;8550;52.596;13.320;2023-07-13T06:10:11;19.70;99.90
16867;DHT22;8550;52.596;13.320;2023-07-13T06:15:13;19.80;99.90
16867;DHT22;8550;52.596;13.320;2023-07-13T06:20:15;20.10;99.90
16867;DHT22;8550;52.596;13.320;2023-07-13T06:25:19;20.00;99.90
16867;DHT22;8550;52.596;13.320;2023-07-13T06:30:20;19.70;99.90
16867;DHT22;8550;52.596;13.320;2023-07-13T06:35:22;20.00;99.90
16867;DHT22;8550;52.596;13.320;2023-07-13T06:40:26;20.10;99.90
16867;DHT22;8550;52.596;13.320;2023-07-13T06:45:29;20.30;99.90
16867;DHT22;8550;52.596;13.320;2023-07-13T06:50:31;20.80;99.90
16867;DHT22;8550;52.596;13.320;2023-07-13T06:55:34;21.00;99.90
16867;DHT22;8550;52.596;13.320;2023-07-13T07:00:36;21.30;99.90
16867;DHT22;8550;52.596;13.320;2023-07-13T07:05:40;21.60;99.90
16867;DHT22;8550;52.596;13.320;2023-07-13T07:10:43;21.90;99.90
16867;DHT22;8550;52.596;13.320;2023-07-13T07:15:46;21.90;99.90
16867;DHT22;8550;52.596;13.320;2023-07-13T07:20:49;22.00;99.90
16867;DHT22;8550;52.596;13.320;2023-07-13T07:25:52;21.90;99.90
16867;DHT22;8550;52.596;13.320;2023-07-13T07:30:56;22.10;99.90
16867;DHT22;8550;52.596;13.320;2023-07-13T07:35:58;22.10;99.90
16867;DHT22;8550;52.596;13.320;2023-07-13T07:41:03;22.20;99.90
16867;DHT22;8550;52.596;13.320;2023-07-13T07:46:05;22.40;99.20
16867;DHT22;8550;52.596;13.320;2023-07-13T07:51:07;22.80;97.90
16867;DHT22;8550;52.596;13.320;2023-07-13T07:56:10;22.80;98.40
16867;DHT22;8550;52.596;13.320;2023-07-13T08:01:12;22.80;98.50
16867;DHT22;8550;52.596;13.320;2023-07-13T08:12:12;23.10;97.20
16867;DHT22;8550;52.596;13.320;2023-07-13T08:17:14;23.10;96.60
16867;DHT22;8550;52.596;13.320;2023-07-13T08:22:16;23.20;96.30
16867;DHT22;8550;52.596;13.320;2023-07-13T08:27:19;23.50;96.50
16867;DHT22;8550;52.596;13.320;2023-07-13T08:32:22;23.80;94.50
16867;DHT22;8550;52.596;13.320;2023-07-13T08:37:24;23.60;94.40
16867;DHT22;8550;52.596;13.320;2023-07-13T08:42:37;23.50;93.50
16867;DHT22;8550;52.596;13.320;2023-07-13T08:47:46;23.50;93.20
16867;DHT22;8550;52.596;13.320;2023-07-13T08:52:49;23.40;91.70
16867;DHT22;8550;52.596;13.320;2023-07-13T08:57:56;23.40;92.00
16867;DHT22;8550;52.596;13.320;2023-07-13T09:03:02;23.60;92.00
16867;DHT22;8550;52.596;13.320;2023-07-13T09:08:16;23.80;92.20
16867;DHT22;8550;52.596;13.320;2023-07-13T09:13:31;24.00;92.10
16867;DHT22;8550;52.596;13.320;2023-07-13T09:18:38;24.30;92.40
16867;DHT22;8550;52.596;13.320;2023-07-13T09:23:43;24.20;89.20
16867;DHT22;8550;52.596;13.320;2023-07-13T09:28:49;24.20;87.20
16867;DHT22;8550;52.596;13.320;2023-07-13T09:33:52;24.30;87.10
16867;DHT22;8550;52.596;13.320;2023-07-13T09:39:00;24.90;87.10
16867;DHT22;8550;52.596;13.320;2023-07-13T09:44:10;25.30;83.90
16867;DHT22;8550;52.596;13.320;2023-07-13T09:49:12;25.10;85.50
16867;DHT22;8550;52.596;13.320;2023-07-13T09:54:20;25.00;85.80
16867;DHT22;8550;52.596;13.320;2023-07-13T09:59:27;25.50;85.40
16867;DHT22;8550;52.596;13.320;2023-07-13T10:04:32;25.60;82.30
16867;DHT22;8550;52.596;13.320;2023-07-13T10:09:35;25.40;81.80
16867;DHT22;8550;52.596;13.320;2023-07-13T10:14:41;24.90;80.40
16867;DHT22;8550;52.596;13.320;2023-07-13T10:19:44;24.30;82.50
16867;DHT22;8550;52.596;13.320;2023-07-13T10:24:49;24.10;87.60
16867;DHT22;8550;52.596;13.320;2023-07-13T10:29:55;23.80;88.60
16867;DHT22;8550;52.596;13.320;2023-07-13T10:35:00;24.10;88.20
16867;DHT22;8550;52.596;13.320;2023-07-13T10:40:05;24.30;85.40
16867;DHT22;8550;52.596;13.320;2023-07-13T10:45:14;24.20;85.80
16867;DHT22;8550;52.596;13.320;2023-07-13T10:50:20;25.00;81.40
16867;DHT22;8550;52.596;13.320;2023-07-13T10:55:37;25.20;80.60
16867;DHT22;8550;52.596;13.320;2023-07-13T11:00:56;25.70;80.10
16867;DHT22;8550;52.596;13.320;2023-07-13T11:06:08;25.90;76.70
16867;DHT22;8550;52.596;13.320;2023-07-13T11:11:33;26.70;76.90
16867;DHT22;8550;52.596;13.320;2023-07-13T11:16:46;27.00;65.60
16867;DHT22;8550;52.596;13.320;2023-07-13T11:22:15;28.20;64.40
16867;DHT22;8550;52.596;13.320;2023-07-13T11:27:33;29.60;61.00
16867;DHT22;8550;52.596;13.320;2023-07-13T11:32:38;31.40;55.00
16867;DHT22;8550;52.596;13.320;2023-07-13T11:37:40;31.60;53.80
16867;DHT22;8550;52.596;13.320;2023-07-13T11:42:42;31.60;51.40
16867;DHT22;8550;52.596;13.320;2023-07-13T11:47:46;32.30;50.20
16867;DHT22;8550;52.596;13.320;2023-07-13T11:52:49;31.40;50.40
16867;DHT22;8550;52.596;13.320;2023-07-13T11:57:57;29.30;54.00
16867;DHT22;8550;52.596;13.320;2023-07-13T12:03:02;29.60;54.50
16867;DHT22;8550;52.596;13.320;2023-07-13T12:08:09;31.00;51.30
16867;DHT22;8550;52.596;13.320;2023-07-13T12:13:12;29.60;53.10
16867;DHT22;8550;52.596;13.320;2023-07-13T12:18:19;28.70;53.90
16867;DHT22;8550;52.596;13.320;2023-07-13T12:23:24;30.00;50.50
16867;DHT22;8550;52.596;13.320;2023-07-13T12:28:38;31.80;49.10
16867;DHT22;8550;52.596;13.320;2023-07-13T12:33:42;31.20;49.70
16867;DHT22;8550;52.596;13.320;2023-07-13T12:38:45;32.80;48.70
16867;DHT22;8550;52.596;13.320;2023-07-13T12:43:48;31.90;49.10
16867;DHT22;8550;52.596;13.320;2023-07-13T12:48:53;28.90;52.90
16867;DHT22;8550;52.596;13.320;2023-07-13T12:53:58;29.80;53.00
16867;DHT22;8550;52.596;13.320;2023-07-13T12:59:16;30.90;49.30
16867;DHT22;8550;52.596;13.320;2023-07-13T13:04:20;31.10;50.40
16867;DHT22;8550;52.596;13.320;2023-07-13T13:09:22;31.70;48.80
16867;DHT22;8550;52.596;13.320;2023-07-13T13:14:24;31.40;47.60
16867;DHT22;8550;52.596;13.320;2023-07-13T13:19:29;30.50;49.80
16867;DHT22;8550;52.596;13.320;2023-07-13T13:24:31;29.80;51.10
16867;DHT22;8550;52.596;13.320;2023-07-13T13:29:34;30.40;51.10
16867;DHT22;8550;52.596;13.320;2023-07-13T13:34:38;30.00;50.90
16867;DHT22;8550;52.596;13.320;2023-07-13T13:39:40;28.80;52.20
16867;DHT22;8550;52.596;13.320;2023-07-13T13:44:42;28.50;52.40
16867;DHT22;8550;52.596;13.320;2023-07-13T13:49:45;29.80;52.80
16867;DHT22;8550;52.596;13.320;2023-07-13T13:54:47;30.80;50.40
16867;DHT22;8550;52.596;13.320;2023-07-13T13:59:49;31.00;49.90
16867;DHT22;8550;52.596;13.320;2023-07-13T14:04:55;30.20;49.60
16867;DHT22;8550;52.596;13.320;2023-07-13T14:09:58;27.80;52.50
16867;DHT22;8550;52.596;13.320;2023-07-13T14:15:01;28.10;54.00
16867;DHT22;8550;52.596;13.320;2023-07-13T14:20:10;29.00;51.30
16867;DHT22;8550;52.596;13.320;2023-07-13T14:25:13;28.20;53.20
16867;DHT22;8550;52.596;13.320;2023-07-13T14:30:18;29.80;52.00
16867;DHT22;8550;52.596;13.320;2023-07-13T14:35:22;29.70;48.80
16867;DHT22;8550;52.596;13.320;2023-07-13T14:40:28;29.50;49.10
16867;DHT22;8550;52.596;13.320;2023-07-13T14:45:31;30.00;48.30
16867;DHT22;8550;52.596;13.320;2023-07-13T14:50:34;29.90;48.50
16867;DHT22;8550;52.596;13.320;2023-07-13T14:55:36;30.10;49.60
16867;DHT22;8550;52.596;13.320;2023-07-13T15:00:38;30.60;49.30
16867;DHT22;8550;52.596;13.320;2023-07-13T15:05:43;29.70;48.80
16867;DHT22;8550;52.596;13.320;2023-07-13T15:10:45;29.20;50.20
16867;DHT22;8550;52.596;13.320;2023-07-13T15:15:48;28.40;50.70
16867;DHT22;8550;52.596;13.320;2023-07-13T15:20:52;27.60;51.30
16867;DHT22;8550;52.596;13.320;2023-07-13T15:25:56;27.30;52.30
16867;DHT22;8550;52.596;13.320;2023-07-13T15:30:58;26.90;52.20
16867;DHT22;8550;52.596;13.320;2023-07-13T15:36:07;26.30;54.30
16867;DHT22;8550;52.596;13.320;2023-07-13T15:41:16;26.20;54.40
16867;DHT22;8550;52.596;13.320;2023-07-13T15:46:21;26.20;54.80
16867;DHT22;8550;52.596;13.320;2023-07-13T15:51:27;26.30;55.60
16867;DHT22;8550;52.596;13.320;2023-07-13T15:56:54;26.10;54.70
16867;DHT22;8550;52.596;13.320;2023-07-13T16:01:59;25.90;55.90
16867;DHT22;8550;52.596;13.320;2023-07-13T16:07:05;25.80;56.00
16867;DHT22;8550;52.596;13.320;2023-07-13T16:12:12;25.90;57.00
16867;DHT22;8550;52.596;13.320;2023-07-13T16:17:16;26.60;58.40
16867;DHT22;8550;52.596;13.320;2023-07-13T16:22:22;26.10;54.80
16867;DHT22;8550;52.596;13.320;2023-07-13T16:27:26;25.80;56.00
16867;DHT22;8550;52.596;13.320;2023-07-13T16:32:30;25.70;56.60
16867;DHT22;8550;52.596;13.320;2023-07-13T16:37:35;25.40;57.10
16867;DHT22;8550;52.596;13.320;2023-07-13T16:42:37;25.10;58.30
16867;DHT22;8550;52.596;13.320;2023-07-13T16:47:42;24.80;59.30
16867;DHT22;8550;52.596;13.320;2023-07-13T16:52:49;24.60;61.20
16867;DHT22;8550;52.596;13.320;2023-07-13T16:57:51;24.40;60.60
16867;DHT22;8550;52.596;13.320;2023-07-13T17:02:55;23.30;75.40
16867;DHT22;8550;52.596;13.320;2023-07-13T17:08:11;20.80;99.90
16867;DHT22;8550;52.596;13.320;2023-07-13T17:13:16;19.10;99.90
16867;DHT22;8550;52.596;13.320;2023-07-13T17:18:25;18.60;99.90
16867;DHT22;8550;52.596;13.320;2023-07-13T17:23:30;18.40;99.90
16867;DHT22;8550;52.596;13.320;2023-07-13T17:28:34;18.40;99.90
16867;DHT22;8550;52.596;13.320;2023-07-13T17:33:37;18.30;99.90
16867;DHT22;8550;52.596;13.320;2023-07-13T17:38:43;18.20;99.90
16867;DHT22;8550;52.596;13.320;2023-07-13T17:43:46;18.20;99.90
16867;DHT22;8550;52.596;13.320;2023-07-13T17:48:49;18.10;99.90
16867;DHT22;8550;52.596;13.320;2023-07-13T17:53:53;17.60;99.90
16867;DHT22;8550;52.596;13.320;2023-07-13T17:58:56;17.60;99.90
16867;DHT22;8550;52.596;13.320;2023-07-13T18:04:00;17.50;99.90
16867;DHT22;8550;52.596;13.320;2023-07-13T18:09:16;17.50;99.90
16867;DHT22;8550;52.596;13.320;2023-07-13T18:14:18;17.40;99.90
16867;DHT22;8550;52.596;13.320;2023-07-13T18:19:25;17.40;99.90
16867;DHT22;8550;52.596;13.320;2023-07-13T18:24:30;17.40;99.90
16867;DHT22;8550;52.596;13.320;2023-07-13T18:29:31;17.70;99.90
16867;DHT22;8550;52.596;13.320;2023-07-13T18:34:36;17.70;99.90
16867;DHT22;8550;52.596;13.320;2023-07-13T18:39:40;17.90;99.90
16867;DHT22;8550;52.596;13.320;2023-07-13T18:44:43;18.10;99.90
16867;DHT22;8550;52.596;13.320;2023-07-13T18:49:45;18.30;99.90
16867;DHT22;8550;52.596;13.320;2023-07-13T18:54:48;18.40;99.90
16867;DHT22;8550;52.596;13.320;2023-07-13T18:59:51;18.30;99.90
16867;DHT22;8550;52.596;13.320;2023-07-13T19:04:53;18.40;99.90
16867;DHT22;8550;52.596;13.320;2023-07-13T19:10:00;18.40;99.90
16867;DHT22;8550;52.596;13.320;2023-07-13T19:15:08;18.20;99.90
16867;DHT22;8550;52.596;13.320;2023-07-13T19:20:18;18.00;99.90
16867;DHT22;8550;52.596;13.320;2023-07-13T19:25:26;17.80;99.90
16867;DHT22;8550;52.596;13.320;2023-07-13T19:30:29;17.60;99.90
16867;DHT22;8550;52.596;13.320;2023-07-13T19:35:31;17.40;99.90
16867;DHT22;8550;52.596;13.320;2023-07-13T19:40:35;17.30;99.90
16867;DHT22;8550;52.596;13.320;2023-07-13T19:45:38;17.30;99.90
16867;DHT22;8550;52.596;13.320;2023-07-13T19:50:41;17.10;99.90
16867;DHT22;8550;52.596;13.320;2023-07-13T19:55:45;17.00;99.90
16867;DHT22;8550;52.596;13.320;2023-07-13T20:00:48;17.00;99.90
16867;DHT22;8550;52.596;13.320;2023-07-13T20:05:50;17.00;99.90
16867;DHT22;8550;52.596;13.320;2023-07-13T20:10:54;17.00;99.90
16867;DHT22;8550;52.596;13.320;2023-07-13T20:15:56;16.90;99.90
16867;DHT22;8550;52.596;13.320;2023-07-13T20:20:59;16.80;99.90
16867;DHT22;8550;52.596;13.320;2023-07-13T20:26:03;16.80;99.90
16867;DHT22;8550;52.596;13.320;2023-07-13T20:31:08;16.70;99.90
16867;DHT22;8550;52.596;13.320;2023-07-13T20:36:13;16.70;99.90
16867;DHT22;8550;52.596;13.320;2023-07-13T20:41:16;16.60;99.90
16867;DHT22;8550;52.596;13.320;2023-07-13T20:46:18;16.60;99.90
16867;DHT22;8550;52.596;13.320;2023-07-13T20:51:21;16.40;99.90
16867;DHT22;8550;52.596;13.320;2023-07-13T20:56:26;16.40;99.90
16867;DHT22;8550;52.596;13.320;2023-07-13T21:01:31;16.50;99.90
16867;DHT22;8550;52.596;13.320;2023-07-13T21:06:33;16.20;99.90
16867;DHT22;8550;52.596;13.320;2023-07-13T21:11:37;16.20;99.90
16867;DHT22;8550;52.596;13.320;2023-07-13T21:16:40;16.10;99.90
16867;DHT22;8550;52.596;13.320;2023-07-13T21:21:42;16.10;99.90
16867;DHT22;8550;52.596;13.320;2023-07-13T21:26:45;16.10;99.90
16867;DHT22;8550;52.596;13.320;2023-07-13T21:31:47;16.10;99.90
16867;DHT22;8550;52.596;13.320;2023-07-13T21:36:51;16.10;99.90
16867;DHT22;8550;52.596;13.320;2023-07-13T21:41:57;16.30;99.90
16867;DHT22;8550;52.596;13.320;2023-07-13T21:47:01;16.30;99.90
16867;DHT22;8550;52.596;13.320;2023-07-13T21:52:13;16.20;99.90
16867;DHT22;8550;52.596;13.320;2023-07-13T21:57:18;16.20;99.90
16867;DHT22;8550;52.596;13.320;2023-07-13T22:02:19;16.20;99.90
16867;DHT22;8550;52.596;13.320;2023-07-13T22:07:21;16.20;99.90
16867;DHT22;8550;52.596;13.320;2023-07-13T22:12:25;16.20;99.90
16867;DHT22;8550;52.596;13.320;2023-07-13T22:17:27;16.30;99.90
16867;DHT22;8550;52.596;13.320;2023-07-13T22:22:29;16.30;99.90
16867;DHT22;8550;52.596;13.320;2023-07-13T22:27:33;16.40;99.90
16867;DHT22;8550;52.596;13.320;2023-07-13T22:32:35;16.40;99.90
16867;DHT22;8550;52.596;13.320;2023-07-13T22:37:37;16.40;99.90
16867;DHT22;8550;52.596;13.320;2023-07-13T22:42:40;16.40;99.90
16867;DHT22;8550;52.596;13.320;2023-07-13T22:47:42;16.40;99.90
16867;DHT22;8550;52.596;13.320;2023-07-13T22:52:44;16.30;99.90
16867;DHT22;8550;52.596;13.320;2023-07-13T22:57:48;16.30;99.90
16867;DHT22;8550;52.596;13.320;2023-07-13T23:02:51;16.20;99.90
16867;DHT22;8550;52.596;13.320;2023-07-13T23:07:52;16.20;99.90
16867;DHT22;8550;52.596;13.320;2023-07-13T23:12:56;16.20;99.90
16867;DHT22;8550;52.596;13.320;2023-07-13T23:18:04;16.20;99.90
16867;DHT22;8550;52.596;13.320;2023-07-13T23:23:10;16.10;99.90
16867;DHT22;8550;52.596;13.320;2023-07-13T23:28:14;16.00;99.90
16867;DHT22;8550;52.596;13.320;2023-07-13T23:33:20;15.80;99.90
16867;DHT22;8550;52.596;13.320;2023-07-13T23:38:23;15.80;99.90
16867;DHT22;8550;52.596;13.320;2023-07-13T23:43:26;15.70;99.90
16867;DHT22;8550;52.596;13.320;2023-07-13T23:48:28;15.70;99.90
16867;DHT22;8550;52.596;13.320;2023-07-13T23:53:30;15.60;99.90
16867;DHT22;8550;52.596;13.320;2023-07-13T23:58:33;15.50;99.90
